Time;durP1;ratioP1;P1;durP2;ratioP2;P2;SDS_P1;SDS_P2;PMS_P1;PMS_P2;Temp;Humidity;BMP_temperature;BMP_pressure;BME280_temperature;BME280_humidity;BME280_pressure;Samples;Min_cycle;Max_cycle;Signal;HPM_P1;HPM_P2
2023/11/24 00:00:31;;;;;;;5.60;1.60;;;;;;;5.60;88.85;97586.00;103222;1254;108062;-69
2023/11/24 00:03:18;;;;;;;6.50;1.70;;;;;;;5.57;88.66;97588.76;103278;1254;1002903;-69
2023/11/24 00:05:46;;;;;;;4.30;1.50;;;;;;;5.54;88.53;97588.09;103646;1258;107759;-68
2023/11/24 00:08:12;;;;;;;3.40;1.30;;;;;;;5.54;88.54;97576.17;103118;1257;138171;-68
2023/11/24 00:10:39;;;;;;;3.90;1.70;;;;;;;5.53;88.31;97560.21;103311;1254;111279;-68
2023/11/24 00:13:06;;;;;;;3.80;1.40;;;;;;;5.54;88.55;97554.96;103350;1254;138809;-68
2023/11/24 00:15:33;;;;;;;4.50;1.30;;;;;;;5.55;88.33;97569.04;102747;1257;1003580;-68
2023/11/24 00:18:01;;;;;;;7.60;1.60;;;;;;;5.57;88.15;97580.34;103184;1258;107677;-68
2023/11/24 00:20:29;;;;;;;3.60;1.40;;;;;;;5.57;87.99;97582.57;103645;1259;137889;-68
2023/11/24 00:22:56;;;;;;;5.40;2.00;;;;;;;5.63;87.91;97598.97;103251;1254;111980;-69
2023/11/24 00:25:23;;;;;;;6.20;2.10;;;;;;;5.65;88.33;97588.48;102750;1254;1002837;-68
2023/11/24 00:27:51;;;;;;;6.20;2.40;;;;;;;5.67;87.79;97583.89;103263;1254;98378;-68
2023/11/24 00:30:19;;;;;;;7.20;2.20;;;;;;;5.63;87.71;97576.56;103229;1257;107468;-68
2023/11/24 00:32:46;;;;;;;6.70;2.00;;;;;;;5.62;87.80;97587.27;103926;1254;139317;-69
2023/11/24 00:35:14;;;;;;;5.40;2.20;;;;;;;5.63;87.76;97590.50;103475;1254;112592;-69
2023/11/24 00:37:41;;;;;;;8.40;2.10;;;;;;;5.64;87.43;97578.92;103326;1254;138638;-68
2023/11/24 00:40:13;;;;;;;5.80;1.60;;;;;;;5.64;87.49;97582.68;103157;1259;97826;-68
2023/11/24 00:42:41;;;;;;;5.70;1.50;;;;;;;5.67;87.40;97575.95;103822;1259;106907;-69
2023/11/24 00:45:09;;;;;;;5.80;1.90;;;;;;;5.69;87.38;97577.06;103723;1257;137801;-68
2023/11/24 00:47:36;;;;;;;7.70;1.80;;;;;;;5.70;87.26;97566.69;103866;1259;111172;-69
2023/11/24 00:50:05;;;;;;;4.70;1.70;;;;;;;5.69;87.47;97578.60;103293;1259;137511;-69
2023/11/24 00:52:32;;;;;;;6.00;1.90;;;;;;;5.66;87.11;97576.02;104305;1254;96367;-69
2023/11/24 00:54:59;;;;;;;5.20;1.70;;;;;;;5.63;87.09;97570.35;103685;1257;108441;-69
2023/11/24 00:57:27;;;;;;;13.10;2.30;;;;;;;5.60;87.25;97581.57;103212;1255;97819;-69
2023/11/24 00:59:53;;;;;;;5.80;1.60;;;;;;;5.58;87.18;97581.48;102635;1254;1002873;-69
2023/11/24 01:02:20;;;;;;;6.10;1.90;;;;;;;5.57;87.28;97582.56;103103;1259;138486;-69
2023/11/24 01:04:47;;;;;;;7.40;1.70;;;;;;;5.57;87.41;97582.91;103107;1260;97793;-69
2023/11/24 01:07:15;;;;;;;8.20;2.10;;;;;;;5.56;87.14;97578.83;102200;1257;1003554;-69
2023/11/24 01:09:42;;;;;;;6.00;1.90;;;;;;;5.52;86.88;97581.95;103064;1257;98427;-69
2023/11/24 01:12:09;;;;;;;6.80;1.80;;;;;;;5.46;86.89;97575.04;103498;1260;113914;-69
2023/11/24 01:14:36;;;;;;;4.90;1.80;;;;;;;5.39;86.89;97580.23;102739;1254;1002822;-70
2023/11/24 01:17:03;;;;;;;6.50;2.10;;;;;;;5.32;86.89;97584.91;103695;1254;97838;-69
2023/11/24 01:19:30;;;;;;;3.50;1.50;;;;;;;5.27;86.97;97590.39;103073;1259;138293;-69
2023/11/24 01:21:56;;;;;;;6.80;1.90;;;;;;;5.23;87.17;97578.21;102435;1259;1003247;-70
2023/11/24 01:24:23;;;;;;;4.30;1.80;;;;;;;5.20;87.15;97587.48;102382;1254;1003771;-69
2023/11/24 01:26:51;;;;;;;4.90;1.70;;;;;;;5.18;87.10;97580.69;103331;1259;1003071;-69
2023/11/24 01:29:18;;;;;;;4.80;1.60;;;;;;;5.18;86.97;97581.73;103816;1254;98492;-70
2023/11/24 01:31:45;;;;;;;8.50;2.40;;;;;;;5.18;87.03;97586.17;102551;1259;1002986;-70
2023/11/24 01:34:14;;;;;;;7.20;2.30;;;;;;;5.17;87.17;97585.02;103523;1258;97787;-69
2023/11/24 01:36:42;;;;;;;8.50;2.30;;;;;;;5.20;87.16;97587.29;103866;1254;112207;-69
2023/11/24 01:39:10;;;;;;;7.60;2.10;;;;;;;5.19;87.06;97584.73;103998;1258;137365;-69
2023/11/24 01:41:37;;;;;;;8.30;2.20;;;;;;;5.19;86.99;97584.61;103767;1260;97945;-69
2023/11/24 01:44:06;;;;;;;4.50;1.30;;;;;;;5.18;87.23;97602.04;103232;1256;137850;-68
2023/11/24 01:46:33;;;;;;;2.80;0.90;;;;;;;5.09;85.37;97611.11;103235;1260;97838;-69
2023/11/24 01:49:01;;;;;;;2.00;0.70;;;;;;;4.88;84.46;97597.95;103387;1257;111079;-68
2023/11/24 01:51:30;;;;;;;2.20;0.60;;;;;;;4.66;84.85;97611.94;103316;1257;109420;-69
2023/11/24 01:53:57;;;;;;;2.00;0.60;;;;;;;4.47;85.24;97608.77;103143;1254;97809;-69
2023/11/24 01:56:24;;;;;;;2.50;0.60;;;;;;;4.29;85.74;97606.08;103042;1259;137382;-70
2023/11/24 01:58:53;;;;;;;1.60;0.60;;;;;;;4.14;86.05;97603.70;103661;1257;97825;-69
2023/11/24 02:01:22;;;;;;;5.30;1.00;;;;;;;4.05;86.66;97587.14;103685;1259;138015;-69
2023/11/24 02:03:48;;;;;;;5.00;1.40;;;;;;;3.98;86.63;97581.60;103458;1256;108385;-69
2023/11/24 02:06:15;;;;;;;1.90;1.00;;;;;;;3.99;86.98;97582.60;103927;1255;97823;-69
2023/11/24 02:08:43;;;;;;;2.80;1.10;;;;;;;4.00;87.24;97575.34;103590;1254;137842;-69
2023/11/24 02:11:10;;;;;;;3.30;1.20;;;;;;;4.03;87.27;97586.02;103255;1260;97876;-69
2023/11/24 02:13:37;;;;;;;3.60;1.10;;;;;;;4.06;87.58;97596.72;102984;1261;138296;-67
2023/11/24 02:16:04;;;;;;;3.60;1.20;;;;;;;4.08;88.23;97591.95;103166;1258;107678;-70
2023/11/24 02:18:31;;;;;;;6.40;1.40;;;;;;;4.12;88.52;97595.87;102392;1255;1003558;-69
2023/11/24 02:21:00;;;;;;;3.50;1.30;;;;;;;4.19;88.60;97599.15;103071;1254;138389;-69
2023/11/24 02:23:27;;;;;;;2.70;1.20;;;;;;;4.25;88.85;97596.98;103296;1255;97769;-68
2023/11/24 02:25:54;;;;;;;2.70;1.10;;;;;;;4.26;88.84;97600.18;102944;1254;1003411;-68
2023/11/24 02:28:21;;;;;;;3.20;1.10;;;;;;;4.30;88.75;97609.79;103125;1260;107976;-68
2023/11/24 02:30:48;;;;;;;2.90;1.20;;;;;;;4.31;89.02;97600.46;103756;1254;98424;-68
2023/11/24 02:33:15;;;;;;;5.30;1.30;;;;;;;4.30;88.89;97600.67;103016;1255;137831;-68
2023/11/24 02:35:42;;;;;;;4.60;1.60;;;;;;;4.27;88.89;97594.66;103106;1260;97705;-68
2023/11/24 02:38:09;;;;;;;3.50;1.40;;;;;;;4.22;89.07;97596.92;102999;1260;137282;-69
2023/11/24 02:40:37;;;;;;;3.20;1.20;;;;;;;4.16;89.11;97598.80;103123;1263;107417;-67
2023/11/24 02:43:03;;;;;;;3.20;1.10;;;;;;;4.11;89.31;97594.90;103254;1254;97680;-69
2023/11/24 02:45:30;;;;;;;3.10;1.20;;;;;;;4.10;89.47;97589.77;102379;1261;1002910;-68
2023/11/24 02:47:57;;;;;;;3.30;1.10;;;;;;;4.09;89.29;97590.88;103082;1254;97961;-68
2023/11/24 02:50:24;;;;;;;3.40;1.50;;;;;;;4.07;89.28;97588.91;103117;1254;138260;-69
2023/11/24 02:52:51;;;;;;;3.50;1.40;;;;;;;4.05;89.30;97590.55;103198;1260;107500;-69
2023/11/24 02:55:18;;;;;;;8.20;1.70;;;;;;;4.05;89.36;97584.34;102987;1259;137674;-68
2023/11/24 02:57:45;;;;;;;5.70;1.70;;;;;;;4.04;89.49;97583.02;104110;1254;107604;-68
2023/11/24 03:00:13;;;;;;;6.80;1.80;;;;;;;3.99;89.17;97575.54;103889;1254;95901;-68
2023/11/24 03:02:41;;;;;;;3.50;1.60;;;;;;;3.94;89.13;97578.88;103087;1256;1002515;-68
2023/11/24 03:05:08;;;;;;;4.30;1.50;;;;;;;3.89;89.26;97584.11;104061;1254;107366;-68
2023/11/24 03:07:36;;;;;;;6.50;1.90;;;;;;;3.84;89.30;97580.05;103204;1258;139202;-68
2023/11/24 03:10:03;;;;;;;5.50;1.80;;;;;;;3.84;89.31;97577.98;103119;1259;107718;-67
2023/11/24 03:12:30;;;;;;;3.70;1.30;;;;;;;3.86;89.25;97569.98;103444;1260;97791;-68
2023/11/24 03:14:58;;;;;;;6.50;1.80;;;;;;;3.92;89.31;97567.78;102070;1260;1003650;-68
2023/11/24 03:17:24;;;;;;;4.60;1.80;;;;;;;3.95;89.00;97564.92;103202;1254;107520;-67
2023/11/24 03:19:51;;;;;;;6.90;1.80;;;;;;;3.98;89.02;97562.21;103935;1254;138524;-68
2023/11/24 03:22:18;;;;;;;8.30;2.00;;;;;;;3.98;88.69;97558.58;104563;1254;108628;-68
2023/11/24 03:24:45;;;;;;;9.10;2.00;;;;;;;3.96;88.37;97561.26;103838;1254;97999;-68
2023/11/24 03:27:12;;;;;;;6.20;2.00;;;;;;;3.93;88.28;97571.02;103560;1257;137903;-69
2023/11/24 03:29:39;;;;;;;7.60;1.60;;;;;;;3.94;88.36;97557.73;103105;1255;107604;-69
2023/11/24 03:32:07;;;;;;;6.10;1.80;;;;;;;3.93;88.26;97540.08;102990;1260;138234;-68
2023/11/24 03:34:35;;;;;;;5.60;1.70;;;;;;;4.02;88.02;97553.58;103184;1260;107545;-68
2023/11/24 03:37:03;;;;;;;6.50;1.70;;;;;;;4.08;87.86;97557.39;104148;1254;95956;-68
2023/11/24 03:39:30;;;;;;;8.00;2.20;;;;;;;4.14;87.60;97553.51;103436;1255;111184;-69
2023/11/24 03:41:57;;;;;;;9.80;2.20;;;;;;;4.18;87.45;97553.26;103209;1259;108472;-69
2023/11/24 03:44:23;;;;;;;9.80;2.40;;;;;;;4.21;87.53;97558.98;103115;1254;137621;-69
2023/11/24 03:46:50;;;;;;;10.50;2.60;;;;;;;4.22;87.21;97554.27;103367;1254;107321;-70
2023/11/24 03:49:17;;;;;;;7.70;1.80;;;;;;;4.22;87.09;97554.11;103462;1260;137662;-69
2023/11/24 03:51:44;;;;;;;6.40;1.90;;;;;;;4.22;87.08;97562.70;103302;1254;113679;-69
2023/11/24 03:54:11;;;;;;;4.60;1.90;;;;;;;4.26;87.09;97562.67;103041;1260;108848;-70
2023/11/24 03:56:38;;;;;;;7.20;1.80;;;;;;;4.29;87.02;97567.86;102308;1254;1003333;-68
2023/11/24 03:59:05;;;;;;;6.40;1.60;;;;;;;4.32;86.67;97566.36;103186;1254;109891;-69
2023/11/24 04:01:32;;;;;;;6.40;1.60;;;;;;;4.37;86.71;97571.46;102371;1254;1002500;-69
2023/11/24 04:04:00;;;;;;;5.10;1.90;;;;;;;4.40;86.44;97570.61;103221;1254;112078;-69
2023/11/24 04:06:27;;;;;;;11.50;2.20;;;;;;;4.41;86.14;97555.77;103481;1254;107508;-70
2023/11/24 04:08:54;;;;;;;12.40;2.50;;;;;;;4.41;86.07;97562.45;103628;1254;137570;-69
2023/11/24 04:11:21;;;;;;;9.30;2.00;;;;;;;4.40;86.07;97563.71;103676;1256;106867;-70
2023/11/24 04:13:47;;;;;;;8.80;2.40;;;;;;;4.38;86.09;97555.39;103640;1259;138276;-69
2023/11/24 04:16:14;;;;;;;10.10;2.00;;;;;;;4.37;85.68;97556.81;102057;1254;1003180;-70
2023/11/24 04:18:41;;;;;;;6.90;1.90;;;;;;;4.37;85.46;97546.18;103180;1257;106969;-68
2023/11/24 04:21:09;;;;;;;4.40;1.90;;;;;;;4.37;85.47;97549.10;103238;1254;138314;-70
2023/11/24 04:23:36;;;;;;;9.10;2.10;;;;;;;4.38;85.28;97543.19;103581;1256;1002726;-70
2023/11/24 04:26:03;;;;;;;6.70;1.90;;;;;;;4.38;85.16;97544.90;102695;1254;1002661;-69
2023/11/24 04:28:30;;;;;;;7.10;2.10;;;;;;;4.39;85.21;97544.32;103217;1255;111828;-68
2023/11/24 04:30:58;;;;;;;7.70;2.50;;;;;;;4.39;85.14;97538.64;102744;1259;1002926;-69
2023/11/24 04:33:25;;;;;;;8.50;2.00;;;;;;;4.38;84.91;97527.36;103173;1254;138453;-69
2023/11/24 04:35:55;;;;;;;3.50;1.60;;;;;;;4.33;84.68;97528.64;103628;1260;109266;-69
2023/11/24 04:38:22;;;;;;;6.80;1.80;;;;;;;4.29;84.56;97526.95;103427;1259;138039;-69
2023/11/24 04:40:48;;;;;;;6.70;2.00;;;;;;;4.23;84.64;97537.88;103874;1254;111289;-69
2023/11/24 04:43:15;;;;;;;5.20;1.70;;;;;;;4.20;84.58;97536.16;102357;1258;1003255;-68
2023/11/24 04:45:42;;;;;;;5.40;1.80;;;;;;;4.16;84.31;97538.60;102461;1254;1002875;-69
2023/11/24 04:48:12;;;;;;;5.60;1.80;;;;;;;4.14;84.25;97536.96;103257;1254;108492;-68
2023/11/24 04:50:39;;;;;;;6.70;1.70;;;;;;;4.12;84.25;97529.70;103096;1254;138678;-69
2023/11/24 04:53:06;;;;;;;5.60;1.70;;;;;;;4.10;84.26;97539.24;103249;1254;110730;-69
2023/11/24 04:55:33;;;;;;;7.40;2.10;;;;;;;4.05;84.48;97535.85;103333;1254;137472;-69
2023/11/24 04:57:59;;;;;;;8.00;2.00;;;;;;;4.02;84.23;97532.93;103267;1254;97721;-69
2023/11/24 05:00:26;;;;;;;4.40;1.60;;;;;;;3.95;84.11;97538.98;103440;1254;109473;-69
2023/11/24 05:02:53;;;;;;;4.30;1.50;;;;;;;3.85;84.15;97549.73;102405;1260;1003581;-70
2023/11/24 05:05:20;;;;;;;5.30;1.50;;;;;;;3.83;84.20;97546.95;103225;1258;111686;-69
2023/11/24 05:07:47;;;;;;;5.00;1.70;;;;;;;3.81;84.41;97550.31;103065;1258;138029;-68
2023/11/24 05:10:14;;;;;;;5.50;1.90;;;;;;;3.82;84.46;97558.68;102458;1254;1003792;-68
2023/11/24 05:12:42;;;;;;;5.80;1.90;;;;;;;3.82;84.47;97556.94;103232;1253;107230;-69
2023/11/24 05:15:10;;;;;;;5.30;1.80;;;;;;;3.82;84.71;97568.45;103121;1254;138319;-69
2023/11/24 05:17:38;;;;;;;9.40;2.20;;;;;;;3.83;84.65;97564.83;103842;1254;1002671;-68
2023/11/24 05:20:06;;;;;;;6.50;2.30;;;;;;;3.81;84.59;97571.23;103513;1259;137503;-70
2023/11/24 05:22:33;;;;;;;8.20;2.00;;;;;;;3.77;84.54;97565.09;104141;1254;96826;-70
2023/11/24 05:25:00;;;;;;;5.40;1.90;;;;;;;3.72;84.33;97567.88;103215;1254;107601;-69
2023/11/24 05:27:27;;;;;;;4.10;1.50;;;;;;;3.69;84.27;97569.06;104011;1254;97618;-69
2023/11/24 05:29:54;;;;;;;4.20;1.50;;;;;;;3.67;84.49;97578.48;103714;1254;111549;-70
2023/11/24 05:32:21;;;;;;;3.70;1.60;;;;;;;3.67;84.55;97581.36;102263;1256;1003219;-69
2023/11/24 05:34:48;;;;;;;4.90;1.70;;;;;;;3.68;84.37;97587.85;103293;1260;98340;-69
2023/11/24 05:37:15;;;;;;;6.50;1.50;;;;;;;3.68;84.50;97579.09;103140;1259;138094;-68
2023/11/24 05:39:41;;;;;;;7.30;1.90;;;;;;;3.67;84.44;97576.91;103567;1254;97848;-69
2023/11/24 05:42:08;;;;;;;9.10;2.30;;;;;;;3.64;84.74;97577.89;103311;1254;111420;-68
2023/11/24 05:44:35;;;;;;;4.00;1.60;;;;;;;3.58;84.81;97585.03;103890;1259;138217;-69
2023/11/24 05:47:04;;;;;;;7.10;1.90;;;;;;;3.59;85.18;97587.59;103204;1254;99091;-69
2023/11/24 05:49:31;;;;;;;4.10;1.60;;;;;;;3.60;85.34;97589.45;102487;1254;1002843;-68
2023/11/24 05:51:58;;;;;;;5.80;1.60;;;;;;;3.60;85.42;97602.16;103870;1254;97823;-68
2023/11/24 05:54:25;;;;;;;7.90;2.00;;;;;;;3.59;85.48;97602.70;103389;1254;111311;-69
2023/11/24 05:56:52;;;;;;;7.50;2.20;;;;;;;3.62;85.75;97601.17;103119;1254;137882;-66
2023/11/24 05:59:19;;;;;;;10.00;2.10;;;;;;;3.64;85.63;97603.31;103411;1253;98282;-68
2023/11/24 06:01:47;;;;;;;8.10;2.20;;;;;;;3.66;85.52;97605.33;103494;1254;138134;-69
2023/11/24 06:04:14;;;;;;;7.90;2.60;;;;;;;3.65;85.58;97603.31;103503;1254;97809;-70
2023/11/24 06:06:41;;;;;;;7.30;2.40;;;;;;;3.62;85.49;97606.88;103536;1254;111912;-68
2023/11/24 06:09:08;;;;;;;6.10;2.20;;;;;;;3.59;85.41;97600.79;103863;1254;139567;-69
2023/11/24 06:11:35;;;;;;;6.60;2.40;;;;;;;3.56;85.51;97600.94;103243;1254;97847;-69
2023/11/24 06:14:01;;;;;;;6.60;2.60;;;;;;;3.53;85.46;97608.10;103139;1254;138210;-68
2023/11/24 06:16:28;;;;;;;7.30;2.30;;;;;;;3.52;85.16;97604.91;103171;1254;97810;-69
2023/11/24 06:18:55;;;;;;;9.60;3.10;;;;;;;3.52;85.19;97607.48;103152;1256;112079;-69
2023/11/24 06:21:25;;;;;;;8.20;2.90;;;;;;;3.52;85.10;97611.77;103001;1257;137733;-69
2023/11/24 06:23:52;;;;;;;9.20;2.70;;;;;;;3.50;84.88;97624.06;102437;1254;1002751;-69
2023/11/24 06:26:19;;;;;;;5.90;2.40;;;;;;;3.46;84.62;97613.96;102389;1254;1002832;-67
2023/11/24 06:28:46;;;;;;;12.40;3.00;;;;;;;3.42;84.54;97624.10;103209;1258;97695;-67
2023/11/24 06:31:15;;;;;;;8.80;2.50;;;;;;;3.37;84.28;97628.45;103139;1254;139358;-67
2023/11/24 06:33:43;;;;;;;8.70;2.70;;;;;;;3.32;84.35;97627.45;102996;1256;108547;-68
2023/11/24 06:36:11;;;;;;;9.80;2.50;;;;;;;3.29;84.15;97629.99;103229;1256;97781;-68
2023/11/24 06:38:38;;;;;;;6.20;2.50;;;;;;;3.27;84.18;97631.32;102189;1259;1003316;-68
2023/11/24 06:41:08;;;;;;;11.20;3.40;;;;;;;3.27;84.34;97632.17;103174;1257;97723;-68
2023/11/24 06:43:35;;;;;;;10.10;2.90;;;;;;;3.25;84.31;97633.98;103936;1254;138314;-68
2023/11/24 06:46:02;;;;;;;9.60;2.90;;;;;;;3.23;84.16;97638.70;103197;1254;107952;-68
2023/11/24 06:48:30;;;;;;;5.30;2.20;;;;;;;3.24;84.43;97635.05;103248;1254;97810;-68
2023/11/24 06:50:57;;;;;;;6.50;2.40;;;;;;;3.30;84.39;97631.86;102353;1258;1003044;-67
2023/11/24 06:53:23;;;;;;;9.10;2.40;;;;;;;3.33;84.43;97634.27;102470;1254;1003503;-67
2023/11/24 06:55:50;;;;;;;9.40;2.50;;;;;;;3.35;84.17;97633.69;103059;1254;137512;-67
2023/11/24 06:58:17;;;;;;;11.70;2.50;;;;;;;3.37;84.29;97643.73;102404;1257;1002961;-67
2023/11/24 07:00:44;;;;;;;12.60;2.80;;;;;;;3.38;84.36;97639.40;103108;1258;97799;-68
2023/11/24 07:03:11;;;;;;;13.20;3.00;;;;;;;3.38;84.27;97638.17;102984;1256;137275;-68
2023/11/24 07:05:38;;;;;;;8.10;2.40;;;;;;;3.41;84.37;97643.73;103178;1254;97790;-68
2023/11/24 07:08:05;;;;;;;10.90;2.80;;;;;;;3.44;84.31;97648.06;103120;1257;137888;-68
2023/11/24 07:10:32;;;;;;;9.20;2.60;;;;;;;3.44;83.83;97640.48;103173;1259;108755;-68
2023/11/24 07:13:00;;;;;;;12.50;2.70;;;;;;;3.46;83.94;97641.11;103223;1254;97789;-69
2023/11/24 07:15:27;;;;;;;10.20;2.50;;;;;;;3.48;83.83;97627.94;101631;1254;1004038;-70
2023/11/24 07:17:54;;;;;;;9.30;2.80;;;;;;;3.51;83.37;97631.23;103243;1254;97886;-68
2023/11/24 07:20:21;;;;;;;12.10;3.10;;;;;;;3.54;83.33;97637.78;103082;1254;138342;-68
2023/11/24 07:22:48;;;;;;;12.60;3.10;;;;;;;3.55;83.21;97637.72;103141;1254;107779;-67
2023/11/24 07:25:16;;;;;;;13.80;2.80;;;;;;;3.54;82.81;97639.66;103026;1254;137812;-68
2023/11/24 07:27:43;;;;;;;9.40;2.40;;;;;;;3.54;82.76;97639.34;102359;1256;1002964;-68
2023/11/24 07:30:12;;;;;;;10.30;3.20;;;;;;;3.53;82.80;97640.27;103196;1259;97881;-68
2023/11/24 07:32:39;;;;;;;12.10;2.50;;;;;;;3.54;82.66;97646.20;103252;1254;139141;-66
2023/11/24 07:35:08;;;;;;;8.70;2.70;;;;;;;3.58;82.37;97643.44;103183;1254;108383;-67
2023/11/24 07:37:35;;;;;;;9.90;2.30;;;;;;;3.63;82.11;97635.33;103011;1259;137860;-68
2023/11/24 07:40:07;;;;;;;11.10;2.70;;;;;;;3.70;82.05;97628.48;103167;1254;108064;-68
2023/11/24 07:42:36;;;;;;;11.00;2.60;;;;;;;3.77;81.63;97628.70;103371;1254;97929;-68
2023/11/24 07:45:03;;;;;;;13.20;3.00;;;;;;;3.78;81.31;97627.94;102387;1254;1003403;-67
2023/11/24 07:47:30;;;;;;;12.20;2.70;;;;;;;3.79;80.81;97622.77;103295;1254;108217;-68
2023/11/24 07:49:57;;;;;;;10.00;2.60;;;;;;;3.74;80.78;97627.78;103060;1257;138547;-67
2023/11/24 07:52:26;;;;;;;7.40;2.60;;;;;;;3.71;80.82;97636.52;102426;1254;1003770;-69
2023/11/24 07:54:53;;;;;;;8.80;2.60;;;;;;;3.69;80.97;97632.48;103183;1254;97813;-67
2023/11/24 07:57:20;;;;;;;7.50;2.30;;;;;;;3.71;80.90;97631.70;103090;1254;137612;-67
2023/11/24 07:59:47;;;;;;;7.50;3.00;;;;;;;3.73;80.70;97632.13;103143;1256;107510;-67
2023/11/24 08:02:14;;;;;;;8.90;2.70;;;;;;;3.72;80.16;97627.00;102937;1254;137597;-67
2023/11/24 08:04:41;;;;;;;10.30;2.60;;;;;;;3.73;80.39;97629.89;103200;1254;107397;-67
2023/11/24 08:07:09;;;;;;;13.10;2.90;;;;;;;3.72;80.45;97635.94;103116;1254;138266;-67
2023/11/24 08:09:36;;;;;;;11.90;3.10;;;;;;;3.69;80.14;97624.57;103706;1254;110574;-68
2023/11/24 08:12:08;;;;;;;11.90;2.90;;;;;;;3.65;79.96;97626.67;103120;1256;1002812;-67
2023/11/24 08:14:39;;;;;;;12.10;3.20;;;;;;;3.61;80.16;97619.11;103135;1254;137691;-67
2023/11/24 08:17:06;;;;;;;7.50;2.40;;;;;;;3.60;80.33;97621.04;103363;1254;107571;-68
2023/11/24 08:19:33;;;;;;;11.00;3.10;;;;;;;3.58;80.17;97626.60;103770;1254;1002224;-68
2023/11/24 08:22:00;;;;;;;9.60;2.80;;;;;;;3.59;79.71;97621.24;103842;1253;111560;-68
2023/11/24 08:24:27;;;;;;;11.20;2.80;;;;;;;3.63;80.01;97620.73;103432;1258;107092;-68
2023/11/24 08:26:53;;;;;;;9.00;2.40;;;;;;;3.68;79.97;97619.47;103052;1254;137763;-68
2023/11/24 08:29:21;;;;;;;10.50;3.20;;;;;;;3.73;79.71;97615.64;103270;1254;1002434;-68
2023/11/24 08:31:49;;;;;;;11.40;3.20;;;;;;;3.77;79.70;97616.31;103340;1254;137785;-68
2023/11/24 08:34:17;;;;;;;13.30;3.40;;;;;;;3.80;79.86;97613.42;103455;1254;111312;-68
2023/11/24 08:36:45;;;;;;;13.30;3.00;;;;;;;3.86;79.66;97608.83;103968;1256;109218;-67
2023/11/24 08:39:13;;;;;;;9.50;3.00;;;;;;;3.92;79.26;97604.91;103197;1254;137449;-67
2023/11/24 08:41:43;;;;;;;11.00;3.20;;;;;;;3.94;78.73;97600.20;103341;1253;108711;-67
2023/11/24 08:44:10;;;;;;;9.30;2.80;;;;;;;3.95;78.43;97602.73;102494;1254;1003424;-67
2023/11/24 08:46:36;;;;;;;15.00;4.50;;;;;;;3.97;78.83;97602.80;103240;1258;111089;-69
2023/11/24 08:49:05;;;;;;;10.70;2.80;;;;;;;4.09;78.63;97592.75;103690;1255;107801;-68
2023/11/24 08:51:32;;;;;;;11.20;3.60;;;;;;;4.36;78.89;97591.61;103659;1256;97772;-67
2023/11/24 08:53:59;;;;;;;13.20;4.00;;;;;;;4.74;78.46;97594.70;103203;1259;108412;-68
2023/11/24 08:56:28;;;;;;;20.70;6.20;;;;;;;4.98;77.86;97593.27;103331;1256;138361;-68
2023/11/24 08:58:55;;;;;;;17.00;4.10;;;;;;;5.21;77.20;97594.67;103294;1256;111577;-68
2023/11/24 09:01:22;;;;;;;13.00;3.70;;;;;;;5.33;76.08;97592.29;103135;1255;138126;-68
2023/11/24 09:03:50;;;;;;;12.60;3.40;;;;;;;5.41;75.62;97589.45;103568;1254;98217;-68
2023/11/24 09:06:24;;;;;;;14.00;4.00;;;;;;;5.54;75.65;97598.07;102536;1258;1003462;-67
2023/11/24 09:08:51;;;;;;;13.60;4.30;;;;;;;5.77;75.61;97591.42;103338;1258;137750;-67
2023/11/24 09:11:18;;;;;;;13.00;3.20;;;;;;;6.04;75.40;97593.42;103423;1254;111998;-67
2023/11/24 09:13:45;;;;;;;12.00;3.00;;;;;;;6.21;74.47;97584.89;103380;1253;139075;-67
2023/11/24 09:16:17;;;;;;;13.20;3.30;;;;;;;6.24;73.40;97581.95;103510;1255;97893;-66
2023/11/24 09:18:45;;;;;;;10.80;3.10;;;;;;;6.10;72.40;97583.80;104066;1254;108012;-67
2023/11/24 09:21:12;;;;;;;10.30;3.20;;;;;;;5.90;72.64;97594.20;103188;1259;137499;-68
2023/11/24 09:23:39;;;;;;;9.30;2.70;;;;;;;5.70;72.76;97592.36;103182;1254;111013;-67
2023/11/24 09:26:10;;;;;;;12.90;2.90;;;;;;;5.53;72.71;97592.93;103142;1257;138003;-68
2023/11/24 09:28:37;;;;;;;10.30;3.20;;;;;;;5.37;72.59;97592.42;102907;1256;1003073;-67
2023/11/24 09:31:08;;;;;;;9.40;2.90;;;;;;;5.26;72.30;97585.98;103431;1257;107266;-68
2023/11/24 09:33:36;;;;;;;9.90;2.90;;;;;;;5.16;72.24;97589.40;102692;1255;1015541;-67
2023/11/24 09:36:04;;;;;;;12.50;2.50;;;;;;;5.09;71.76;97583.58;103315;1254;111280;-67
2023/11/24 09:38:33;;;;;;;10.30;2.80;;;;;;;4.98;71.69;97590.71;103283;1254;138536;-67
2023/11/24 09:41:08;;;;;;;10.90;2.90;;;;;;;4.85;71.54;97577.60;103454;1254;96411;-66
2023/11/24 09:43:35;;;;;;;11.40;2.90;;;;;;;4.73;71.45;97573.91;103469;1254;138060;-67
2023/11/24 09:46:02;;;;;;;14.20;3.30;;;;;;;4.67;72.08;97585.09;103917;1254;97774;-69
2023/11/24 09:48:31;;;;;;;14.70;3.60;;;;;;;4.59;72.19;97584.45;101842;1254;1003810;-67
2023/11/24 09:51:01;;;;;;;8.30;2.90;;;;;;;4.47;72.75;97578.17;102868;1253;1003285;-67
2023/11/24 09:53:34;;;;;;;9.20;2.30;;;;;;;4.36;73.09;97576.13;103429;1254;98954;-66
2023/11/24 09:56:02;;;;;;;7.50;2.50;;;;;;;4.30;73.25;97575.77;103632;1254;138154;-67
2023/11/24 09:58:30;;;;;;;7.90;2.60;;;;;;;4.25;73.36;97578.02;103245;1254;97870;-68
2023/11/24 10:01:05;;;;;;;9.30;3.10;;;;;;;4.26;73.94;97575.77;103392;1253;111775;-68
2023/11/24 10:03:34;;;;;;;9.30;2.70;;;;;;;4.28;72.96;97567.40;103435;1256;106741;-68
2023/11/24 10:06:01;;;;;;;13.50;2.90;;;;;;;4.31;72.42;97564.54;103248;1256;97785;-67
2023/11/24 10:08:28;;;;;;;8.90;2.60;;;;;;;4.44;72.37;97568.48;103794;1256;137243;-67
2023/11/24 10:11:09;;;;;;;10.00;2.80;;;;;;;4.63;71.53;97560.33;102567;1256;1003343;-66
2023/11/24 10:13:37;;;;;;;9.60;2.70;;;;;;;4.76;71.31;97563.94;103375;1255;138762;-68
2023/11/24 10:16:05;;;;;;;12.80;3.00;;;;;;;4.81;71.56;97559.19;104197;1256;107413;-68
2023/11/24 10:18:32;;;;;;;13.50;3.10;;;;;;;4.78;71.11;97564.01;103954;1257;97974;-67
2023/11/24 10:21:00;;;;;;;9.10;2.50;;;;;;;4.72;71.15;97564.16;103442;1255;137319;-66
2023/11/24 10:23:30;;;;;;;8.10;2.50;;;;;;;4.65;71.06;97561.25;103035;1260;98828;-67
2023/11/24 10:25:59;;;;;;;7.80;2.50;;;;;;;4.55;71.25;97557.79;102431;1255;1003003;-67
2023/11/24 10:28:26;;;;;;;7.50;2.10;;;;;;;4.51;71.77;97558.72;103912;1256;106945;-68
2023/11/24 10:30:55;;;;;;;6.90;2.60;;;;;;;4.49;71.66;97555.86;103855;1255;98305;-68
2023/11/24 10:33:24;;;;;;;8.60;3.50;;;;;;;4.51;71.75;97553.17;103623;1259;137331;-68
2023/11/24 10:36:02;;;;;;;11.70;3.40;;;;;;;4.55;71.47;97543.50;104452;1255;96912;-68
2023/11/24 10:38:32;;;;;;;6.20;2.30;;;;;;;4.55;71.57;97542.51;104303;1254;138310;-67
2023/11/24 10:41:00;;;;;;;13.20;3.80;;;;;;;4.52;71.50;97550.76;104510;1255;108522;-67
2023/11/24 10:43:33;;;;;;;11.00;4.00;;;;;;;4.56;71.91;97556.20;103886;1256;137707;-66
2023/11/24 10:46:02;;;;;;;13.40;3.80;;;;;;;4.72;72.24;97555.03;103563;1255;1002902;-67
2023/11/24 10:48:53;;;;;;;8.20;2.90;;;;;;;4.80;71.57;97558.40;103708;1259;97780;-71
2023/11/24 10:51:34;;;;;;;7.80;2.90;;;;;;;4.84;71.05;97557.48;103133;1256;137011;-72
2023/11/24 10:54:04;;;;;;;6.00;2.00;;;;;;;4.98;71.27;97556.95;103709;1256;106592;-72
2023/11/24 10:56:35;;;;;;;10.40;2.60;;;;;;;5.11;69.41;97556.80;103169;1256;138222;-72
2023/11/24 10:59:08;;;;;;;10.00;2.30;;;;;;;5.10;68.86;97555.63;103531;1255;107563;-72
2023/11/24 11:01:35;;;;;;;6.80;2.30;;;;;;;5.03;67.92;97555.15;103468;1254;137840;-72
2023/11/24 11:04:04;;;;;;;9.60;2.50;;;;;;;4.92;67.93;97560.75;103768;1253;111437;-72
2023/11/24 11:06:41;;;;;;;6.60;2.20;;;;;;;4.81;68.65;97566.23;102356;1254;1003359;-72
2023/11/24 11:09:19;;;;;;;10.00;2.30;;;;;;;4.74;68.29;97571.98;102464;1259;1003078;-71
2023/11/24 11:12:30;;;;;;;7.70;2.20;;;;;;;4.68;68.32;97572.61;103233;1254;107615;-72
2023/11/24 11:14:58;;;;;;;7.90;2.40;;;;;;;4.63;67.78;97573.55;103183;1254;137538;-71
2023/11/24 11:17:26;;;;;;;6.80;2.20;;;;;;;4.60;67.91;97572.19;103254;1254;111127;-71
2023/11/24 11:20:00;;;;;;;6.40;1.70;;;;;;;4.52;66.30;97550.90;103224;1254;137493;-71
2023/11/24 11:22:36;;;;;;;7.80;2.00;;;;;;;4.44;66.60;97560.05;103451;1254;98333;-71
2023/11/24 11:25:38;;;;;;;8.30;2.10;;;;;;;4.39;66.89;97557.58;102578;1254;1003541;-72
2023/11/24 11:28:46;;;;;;;4.60;1.90;;;;;;;4.34;67.05;97556.80;102746;1254;1003756;-70